sensor_id;sensor_type;location;lat;lon;timestamp;temperature;humidity
13600;DHT22;6871;51.34740610;4.31323160;2022-07-12T05:29:23;22.40;82.80
13600;DHT22;6871;51.34740610;4.31323160;2022-07-12T05:31:55;24.00;77.90
13600;DHT22;6871;51.34740610;4.31323160;2022-07-12T05:34:25;24.00;77.30
13600;DHT22;6871;51.34740610;4.31323160;2022-07-12T05:36:54;24.00;77.30
13600;DHT22;6871;51.34740610;4.31323160;2022-07-12T05:39:23;24.00;77.40
13600;DHT22;6871;51.34740610;4.31323160;2022-07-12T05:41:52;24.00;77.50
13600;DHT22;6871;51.34740610;4.31323160;2022-07-12T05:44:21;23.90;77.70
13600;DHT22;6871;51.34740610;4.31323160;2022-07-12T05:46:50;23.90;77.80
13600;DHT22;6871;51.34740610;4.31323160;2022-07-12T05:49:19;23.90;77.90
13600;DHT22;6871;51.34740610;4.31323160;2022-07-12T05:51:48;23.90;78.00
13600;DHT22;6871;51.34740610;4.31323160;2022-07-12T05:54:35;24.00;77.90
13600;DHT22;6871;51.34740610;4.31323160;2022-07-12T05:57:05;23.90;77.60
13600;DHT22;6871;51.34740610;4.31323160;2022-07-12T05:59:36;23.90;77.70
13600;DHT22;6871;51.34740610;4.31323160;2022-07-12T06:02:05;23.90;77.70
13600;DHT22;6871;51.34740610;4.31323160;2022-07-12T06:04:34;24.00;77.40
13600;DHT22;6871;51.34740610;4.31323160;2022-07-12T06:07:04;23.90;77.40
13600;DHT22;6871;51.34740610;4.31323160;2022-07-12T06:09:33;23.90;77.40
13600;DHT22;6871;51.34740610;4.31323160;2022-07-12T06:12:03;24.00;77.40
13600;DHT22;6871;51.34740610;4.31323160;2022-07-12T06:14:32;24.00;77.30
13600;DHT22;6871;51.34740610;4.31323160;2022-07-12T06:17:01;24.00;77.00
13600;DHT22;6871;51.34740610;4.31323160;2022-07-12T06:19:30;24.00;76.90
13600;DHT22;6871;51.34740610;4.31323160;2022-07-12T06:21:59;24.00;77.10
13600;DHT22;6871;51.34740610;4.31323160;2022-07-12T06:24:28;23.90;77.10
13600;DHT22;6871;51.34740610;4.31323160;2022-07-12T06:26:57;23.90;77.10
13600;DHT22;6871;51.34740610;4.31323160;2022-07-12T06:29:26;23.90;76.90
13600;DHT22;6871;51.34740610;4.31323160;2022-07-12T06:31:55;24.00;76.90
13600;DHT22;6871;51.34740610;4.31323160;2022-07-12T06:34:24;23.90;76.80
13600;DHT22;6871;51.34740610;4.31323160;2022-07-12T06:36:53;23.90;76.90
13600;DHT22;6871;51.34740610;4.31323160;2022-07-12T06:39:23;23.90;77.00
13600;DHT22;6871;51.34740610;4.31323160;2022-07-12T06:41:51;23.90;77.10
13600;DHT22;6871;51.34740610;4.31323160;2022-07-12T06:44:21;24.00;77.00
13600;DHT22;6871;51.34740610;4.31323160;2022-07-12T06:46:50;24.00;77.10
13600;DHT22;6871;51.34740610;4.31323160;2022-07-12T06:49:19;23.90;77.40
13600;DHT22;6871;51.34740610;4.31323160;2022-07-12T06:51:48;23.80;77.80
13600;DHT22;6871;51.34740610;4.31323160;2022-07-12T06:54:17;23.80;77.90
13600;DHT22;6871;51.34740610;4.31323160;2022-07-12T06:56:46;23.90;77.50
13600;DHT22;6871;51.34740610;4.31323160;2022-07-12T06:59:15;24.00;77.40
13600;DHT22;6871;51.34740610;4.31323160;2022-07-12T07:02:02;23.90;77.80
13600;DHT22;6871;51.34740610;4.31323160;2022-07-12T08:22:44;24.10;77.20
13600;DHT22;6871;51.34740610;4.31323160;2022-07-12T08:25:13;24.10;77.30
13600;DHT22;6871;51.34740610;4.31323160;2022-07-12T08:27:43;24.10;77.00
13600;DHT22;6871;51.34740610;4.31323160;2022-07-12T08:30:12;24.10;76.90
13600;DHT22;6871;51.34740610;4.31323160;2022-07-12T08:32:44;24.10;77.00
13600;DHT22;6871;51.34740610;4.31323160;2022-07-12T08:35:15;24.10;77.00
13600;DHT22;6871;51.34740610;4.31323160;2022-07-12T08:37:44;24.20;76.70
13600;DHT22;6871;51.34740610;4.31323160;2022-07-12T08:40:13;24.20;76.60
13600;DHT22;6871;51.34740610;4.31323160;2022-07-12T08:42:42;24.20;76.60
13600;DHT22;6871;51.34740610;4.31323160;2022-07-12T08:45:11;24.20;76.60
13600;DHT22;6871;51.34740610;4.31323160;2022-07-12T08:47:40;24.30;76.70
13600;DHT22;6871;51.34740610;4.31323160;2022-07-12T08:50:15;24.30;76.70
13600;DHT22;6871;51.34740610;4.31323160;2022-07-12T08:59:15;24.40;75.90
13600;DHT22;6871;51.34740610;4.31323160;2022-07-12T09:01:48;24.30;76.20
13600;DHT22;6871;51.34740610;4.31323160;2022-07-12T09:04:19;24.40;76.40
13600;DHT22;6871;51.34740610;4.31323160;2022-07-12T09:06:56;24.40;76.20
13600;DHT22;6871;51.34740610;4.31323160;2022-07-12T09:09:27;24.40;76.10
13600;DHT22;6871;51.34740610;4.31323160;2022-07-12T09:11:58;24.50;76.10
13600;DHT22;6871;51.34740610;4.31323160;2022-07-12T09:14:27;24.50;76.10
13600;DHT22;6871;51.34740610;4.31323160;2022-07-12T09:17:02;24.50;76.10
13600;DHT22;6871;51.34740610;4.31323160;2022-07-12T09:19:32;24.50;75.90
13600;DHT22;6871;51.34740610;4.31323160;2022-07-12T09:22:01;24.60;76.00
13600;DHT22;6871;51.34740610;4.31323160;2022-07-12T09:24:37;24.60;75.90
13600;DHT22;6871;51.34740610;4.31323160;2022-07-12T09:27:07;24.60;75.50
13600;DHT22;6871;51.34740610;4.31323160;2022-07-12T09:29:48;24.60;75.80
13600;DHT22;6871;51.34740610;4.31323160;2022-07-12T09:32:17;24.70;75.90
13600;DHT22;6871;51.34740610;4.31323160;2022-07-12T09:35:05;24.70;75.60
13600;DHT22;6871;51.34740610;4.31323160;2022-07-12T09:37:52;24.70;75.70
13600;DHT22;6871;51.34740610;4.31323160;2022-07-12T09:40:22;24.70;75.50
13600;DHT22;6871;51.34740610;4.31323160;2022-07-12T09:42:52;24.70;75.70
13600;DHT22;6871;51.34740610;4.31323160;2022-07-12T09:45:22;24.70;75.70
13600;DHT22;6871;51.34740610;4.31323160;2022-07-12T09:47:52;24.80;75.80
13600;DHT22;6871;51.34740610;4.31323160;2022-07-12T09:50:21;24.80;75.70
13600;DHT22;6871;51.34740610;4.31323160;2022-07-12T09:52:51;24.80;75.30
13600;DHT22;6871;51.34740610;4.31323160;2022-07-12T09:55:23;24.80;75.50
13600;DHT22;6871;51.34740610;4.31323160;2022-07-12T09:57:55;24.90;75.70
13600;DHT22;6871;51.34740610;4.31323160;2022-07-12T10:00:25;24.90;75.90
13600;DHT22;6871;51.34740610;4.31323160;2022-07-12T10:02:55;24.90;75.90
13600;DHT22;6871;51.34740610;4.31323160;2022-07-12T10:05:26;24.90;76.00
13600;DHT22;6871;51.34740610;4.31323160;2022-07-12T10:07:56;24.90;75.70
13600;DHT22;6871;51.34740610;4.31323160;2022-07-12T10:10:26;24.90;75.50
13600;DHT22;6871;51.34740610;4.31323160;2022-07-12T10:12:56;24.90;75.90
13600;DHT22;6871;51.34740610;4.31323160;2022-07-12T10:15:27;24.90;75.90
13600;DHT22;6871;51.34740610;4.31323160;2022-07-12T10:17:57;24.90;75.70
13600;DHT22;6871;51.34740610;4.31323160;2022-07-12T10:20:28;25.00;75.40
13600;DHT22;6871;51.34740610;4.31323160;2022-07-12T10:23:26;25.00;75.40
13600;DHT22;6871;51.34740610;4.31323160;2022-07-12T10:25:44;25.00;75.40
13600;DHT22;6871;51.34740610;4.31323160;2022-07-12T10:28:15;25.00;75.80
13600;DHT22;6871;51.34740610;4.31323160;2022-07-12T10:30:45;25.00;75.80
13600;DHT22;6871;51.34740610;4.31323160;2022-07-12T10:33:19;25.10;76.30
13600;DHT22;6871;51.34740610;4.31323160;2022-07-12T10:42:35;25.10;76.00
13600;DHT22;6871;51.34740610;4.31323160;2022-07-12T10:45:13;25.10;76.10
13600;DHT22;6871;51.34740610;4.31323160;2022-07-12T10:47:55;25.10;75.70
13600;DHT22;6871;51.34740610;4.31323160;2022-07-12T10:50:54;25.10;75.60
13600;DHT22;6871;51.34740610;4.31323160;2022-07-12T10:53:31;25.10;75.70
13600;DHT22;6871;51.34740610;4.31323160;2022-07-12T10:56:16;25.10;75.80
13600;DHT22;6871;51.34740610;4.31323160;2022-07-12T11:05:31;25.20;75.60
13600;DHT22;6871;51.34740610;4.31323160;2022-07-12T11:08:00;25.20;76.30
13600;DHT22;6871;51.34740610;4.31323160;2022-07-12T11:10:29;25.20;76.50
13600;DHT22;6871;51.34740610;4.31323160;2022-07-12T11:12:58;25.20;76.50
13600;DHT22;6871;51.34740610;4.31323160;2022-07-12T11:18:52;25.30;76.00
13600;DHT22;6871;51.34740610;4.31323160;2022-07-12T11:21:21;25.20;75.60
13600;DHT22;6871;51.34740610;4.31323160;2022-07-12T11:23:52;25.20;74.90
13600;DHT22;6871;51.34740610;4.31323160;2022-07-12T11:26:21;25.30;77.00
13600;DHT22;6871;51.34740610;4.31323160;2022-07-12T11:32:36;25.30;76.00
13600;DHT22;6871;51.34740610;4.31323160;2022-07-12T11:35:36;25.30;75.20
13600;DHT22;6871;51.34740610;4.31323160;2022-07-12T11:38:05;25.40;72.60
13600;DHT22;6871;51.34740610;4.31323160;2022-07-12T11:40:34;25.40;72.80
13600;DHT22;6871;51.34740610;4.31323160;2022-07-12T11:46:25;25.40;74.20
13600;DHT22;6871;51.34740610;4.31323160;2022-07-12T12:22:52;25.40;74.50
13600;DHT22;6871;51.34740610;4.31323160;2022-07-12T12:25:22;25.40;74.90
13600;DHT22;6871;51.34740610;4.31323160;2022-07-12T12:27:54;25.40;74.40
13600;DHT22;6871;51.34740610;4.31323160;2022-07-12T12:30:24;25.40;74.40
13600;DHT22;6871;51.34740610;4.31323160;2022-07-12T12:32:55;25.40;73.20
13600;DHT22;6871;51.34740610;4.31323160;2022-07-12T12:35:30;25.50;72.60
13600;DHT22;6871;51.34740610;4.31323160;2022-07-12T13:44:47;25.60;69.50
13600;DHT22;6871;51.34740610;4.31323160;2022-07-12T13:47:16;25.60;70.10
13600;DHT22;6871;51.34740610;4.31323160;2022-07-12T13:49:45;25.70;69.60
13600;DHT22;6871;51.34740610;4.31323160;2022-07-12T14:05:43;25.70;68.60
13600;DHT22;6871;51.34740610;4.31323160;2022-07-12T14:08:12;25.70;67.40
13600;DHT22;6871;51.34740610;4.31323160;2022-07-12T14:10:41;25.60;67.60
13600;DHT22;6871;51.34740610;4.31323160;2022-07-12T14:13:10;25.60;67.80
13600;DHT22;6871;51.34740610;4.31323160;2022-07-12T14:15:40;25.60;67.90
13600;DHT22;6871;51.34740610;4.31323160;2022-07-12T14:18:10;25.70;67.40
13600;DHT22;6871;51.34740610;4.31323160;2022-07-12T14:30:30;25.70;67.60
13600;DHT22;6871;51.34740610;4.31323160;2022-07-12T14:32:59;25.70;67.70
13600;DHT22;6871;51.34740610;4.31323160;2022-07-12T14:35:28;25.70;68.40
13600;DHT22;6871;51.34740610;4.31323160;2022-07-12T14:37:57;25.70;69.10
13600;DHT22;6871;51.34740610;4.31323160;2022-07-12T14:40:26;25.80;68.80
13600;DHT22;6871;51.34740610;4.31323160;2022-07-12T14:42:55;25.80;68.90
13600;DHT22;6871;51.34740610;4.31323160;2022-07-12T14:45:25;25.90;68.40
13600;DHT22;6871;51.34740610;4.31323160;2022-07-12T14:47:55;25.90;68.50
13600;DHT22;6871;51.34740610;4.31323160;2022-07-12T14:50:24;25.90;69.10
13600;DHT22;6871;51.34740610;4.31323160;2022-07-12T14:52:53;25.90;68.50
13600;DHT22;6871;51.34740610;4.31323160;2022-07-12T14:55:23;25.90;68.00
13600;DHT22;6871;51.34740610;4.31323160;2022-07-12T14:57:52;25.90;68.00
13600;DHT22;6871;51.34740610;4.31323160;2022-07-12T15:00:21;25.90;68.60
13600;DHT22;6871;51.34740610;4.31323160;2022-07-12T15:02:50;25.80;67.80
13600;DHT22;6871;51.34740610;4.31323160;2022-07-12T15:05:19;25.90;68.60
13600;DHT22;6871;51.34740610;4.31323160;2022-07-12T15:07:48;25.90;68.70
13600;DHT22;6871;51.34740610;4.31323160;2022-07-12T15:10:17;25.90;71.10
13600;DHT22;6871;51.34740610;4.31323160;2022-07-12T15:12:46;25.90;70.50
13600;DHT22;6871;51.34740610;4.31323160;2022-07-12T15:15:15;25.90;70.00
13600;DHT22;6871;51.34740610;4.31323160;2022-07-12T15:17:44;25.90;71.30
13600;DHT22;6871;51.34740610;4.31323160;2022-07-12T15:20:13;25.90;71.50
13600;DHT22;6871;51.34740610;4.31323160;2022-07-12T15:22:42;26.00;71.50
13600;DHT22;6871;51.34740610;4.31323160;2022-07-12T15:25:11;26.00;71.40
13600;DHT22;6871;51.34740610;4.31323160;2022-07-12T15:27:41;26.00;71.30
13600;DHT22;6871;51.34740610;4.31323160;2022-07-12T15:30:11;26.00;71.10
13600;DHT22;6871;51.34740610;4.31323160;2022-07-12T15:32:40;26.00;70.80
13600;DHT22;6871;51.34740610;4.31323160;2022-07-12T15:35:11;26.00;71.80
13600;DHT22;6871;51.34740610;4.31323160;2022-07-12T15:37:44;26.00;71.10
13600;DHT22;6871;51.34740610;4.31323160;2022-07-12T15:40:13;26.00;71.20
13600;DHT22;6871;51.34740610;4.31323160;2022-07-12T15:42:43;26.00;70.80
13600;DHT22;6871;51.34740610;4.31323160;2022-07-12T15:45:12;26.00;69.90
13600;DHT22;6871;51.34740610;4.31323160;2022-07-12T15:47:41;26.00;69.80
13600;DHT22;6871;51.34740610;4.31323160;2022-07-12T15:50:10;25.90;69.90
13600;DHT22;6871;51.34740610;4.31323160;2022-07-12T15:52:39;26.00;70.50
13600;DHT22;6871;51.34740610;4.31323160;2022-07-12T15:55:26;26.00;70.20
13600;DHT22;6871;51.34740610;4.31323160;2022-07-12T15:57:55;26.00;69.80
13600;DHT22;6871;51.34740610;4.31323160;2022-07-12T16:00:26;26.00;69.90
13600;DHT22;6871;51.34740610;4.31323160;2022-07-12T16:02:55;26.10;69.80
13600;DHT22;6871;51.34740610;4.31323160;2022-07-12T16:05:24;26.20;69.90
13600;DHT22;6871;51.34740610;4.31323160;2022-07-12T16:07:54;26.20;69.90
13600;DHT22;6871;51.34740610;4.31323160;2022-07-12T16:10:23;26.10;69.80
13600;DHT22;6871;51.34740610;4.31323160;2022-07-12T16:12:52;26.20;69.90
13600;DHT22;6871;51.34740610;4.31323160;2022-07-12T16:15:22;26.20;70.00
13600;DHT22;6871;51.34740610;4.31323160;2022-07-12T16:17:52;26.20;70.00
13600;DHT22;6871;51.34740610;4.31323160;2022-07-12T16:23:57;26.20;70.00
13600;DHT22;6871;51.34740610;4.31323160;2022-07-12T16:26:26;26.20;69.40
13600;DHT22;6871;51.34740610;4.31323160;2022-07-12T16:28:55;26.20;69.20
13600;DHT22;6871;51.34740610;4.31323160;2022-07-12T16:31:24;26.20;69.30
13600;DHT22;6871;51.34740610;4.31323160;2022-07-12T16:33:53;26.10;68.00
13600;DHT22;6871;51.34740610;4.31323160;2022-07-12T16:36:22;26.10;67.20
13600;DHT22;6871;51.34740610;4.31323160;2022-07-12T16:38:53;26.10;68.40
13600;DHT22;6871;51.34740610;4.31323160;2022-07-12T16:41:23;26.10;68.20
13600;DHT22;6871;51.34740610;4.31323160;2022-07-12T16:43:53;26.10;68.40
13600;DHT22;6871;51.34740610;4.31323160;2022-07-12T16:46:22;26.00;68.80
13600;DHT22;6871;51.34740610;4.31323160;2022-07-12T16:48:51;26.10;69.30
13600;DHT22;6871;51.34740610;4.31323160;2022-07-12T16:51:20;26.10;69.10
13600;DHT22;6871;51.34740610;4.31323160;2022-07-12T16:53:50;26.10;69.00
13600;DHT22;6871;51.34740610;4.31323160;2022-07-12T16:56:22;26.20;69.00
13600;DHT22;6871;51.34740610;4.31323160;2022-07-12T16:58:52;26.20;69.10
13600;DHT22;6871;51.34740610;4.31323160;2022-07-12T17:01:24;26.20;69.10
13600;DHT22;6871;51.34740610;4.31323160;2022-07-12T17:03:53;26.20;69.00
13600;DHT22;6871;51.34740610;4.31323160;2022-07-12T17:06:23;26.10;69.20
13600;DHT22;6871;51.34740610;4.31323160;2022-07-12T17:08:53;26.10;69.70
13600;DHT22;6871;51.34740610;4.31323160;2022-07-12T17:11:22;26.10;69.80
13600;DHT22;6871;51.34740610;4.31323160;2022-07-12T17:13:51;26.10;70.20
13600;DHT22;6871;51.34740610;4.31323160;2022-07-12T17:16:20;26.20;69.80
13600;DHT22;6871;51.34740610;4.31323160;2022-07-12T17:18:50;26.20;70.30
13600;DHT22;6871;51.34740610;4.31323160;2022-07-12T17:21:19;26.10;69.90
13600;DHT22;6871;51.34740610;4.31323160;2022-07-12T17:23:48;26.10;69.60
13600;DHT22;6871;51.34740610;4.31323160;2022-07-12T17:26:17;26.10;70.00
13600;DHT22;6871;51.34740610;4.31323160;2022-07-12T17:28:46;26.10;69.90
13600;DHT22;6871;51.34740610;4.31323160;2022-07-12T17:31:16;26.10;70.00
13600;DHT22;6871;51.34740610;4.31323160;2022-07-12T17:33:45;26.10;70.00
13600;DHT22;6871;51.34740610;4.31323160;2022-07-12T17:46:33;26.10;71.00
13600;DHT22;6871;51.34740610;4.31323160;2022-07-12T17:49:02;26.00;70.50
13600;DHT22;6871;51.34740610;4.31323160;2022-07-12T17:51:31;26.10;70.00
13600;DHT22;6871;51.34740610;4.31323160;2022-07-12T17:54:05;26.10;70.00
13600;DHT22;6871;51.34740610;4.31323160;2022-07-12T17:56:34;26.10;70.10
13600;DHT22;6871;51.34740610;4.31323160;2022-07-12T17:59:03;26.10;69.70
13600;DHT22;6871;51.34740610;4.31323160;2022-07-12T18:01:32;26.10;69.50
13600;DHT22;6871;51.34740610;4.31323160;2022-07-12T18:04:01;26.10;69.40
13600;DHT22;6871;51.34740610;4.31323160;2022-07-12T18:06:31;26.10;69.70
13600;DHT22;6871;51.34740610;4.31323160;2022-07-12T18:09:02;26.10;69.70
13600;DHT22;6871;51.34740610;4.31323160;2022-07-12T18:11:32;26.10;69.90
13600;DHT22;6871;51.34740610;4.31323160;2022-07-12T18:14:19;26.10;69.60
13600;DHT22;6871;51.34740610;4.31323160;2022-07-12T18:17:06;26.00;69.80
13600;DHT22;6871;51.34740610;4.31323160;2022-07-12T18:19:52;26.10;70.20
13600;DHT22;6871;51.34740610;4.31323160;2022-07-12T18:22:21;26.10;70.90
13600;DHT22;6871;51.34740610;4.31323160;2022-07-12T18:24:50;26.10;71.00
13600;DHT22;6871;51.34740610;4.31323160;2022-07-12T18:27:19;26.10;70.70
13600;DHT22;6871;51.34740610;4.31323160;2022-07-12T18:29:48;26.10;70.90
13600;DHT22;6871;51.34740610;4.31323160;2022-07-12T18:32:17;26.00;70.90
13600;DHT22;6871;51.34740610;4.31323160;2022-07-12T18:34:47;26.10;72.30
13600;DHT22;6871;51.34740610;4.31323160;2022-07-12T18:37:16;26.10;71.70
13600;DHT22;6871;51.34740610;4.31323160;2022-07-12T18:39:45;26.10;71.70
13600;DHT22;6871;51.34740610;4.31323160;2022-07-12T18:42:14;26.10;71.80
13600;DHT22;6871;51.34740610;4.31323160;2022-07-12T18:44:43;26.10;71.70
13600;DHT22;6871;51.34740610;4.31323160;2022-07-12T18:47:12;26.10;71.80
13600;DHT22;6871;51.34740610;4.31323160;2022-07-12T18:49:41;26.10;71.90
13600;DHT22;6871;51.34740610;4.31323160;2022-07-12T18:52:11;26.10;71.90
13600;DHT22;6871;51.34740610;4.31323160;2022-07-12T18:54:41;26.10;71.90
13600;DHT22;6871;51.34740610;4.31323160;2022-07-12T18:57:10;26.10;72.90
13600;DHT22;6871;51.34740610;4.31323160;2022-07-12T18:59:39;26.10;72.10
13600;DHT22;6871;51.34740610;4.31323160;2022-07-12T19:02:08;26.10;72.20
13600;DHT22;6871;51.34740610;4.31323160;2022-07-12T19:04:37;26.10;72.20
13600;DHT22;6871;51.34740610;4.31323160;2022-07-12T19:07:06;26.10;72.20
13600;DHT22;6871;51.34740610;4.31323160;2022-07-12T19:09:35;26.10;72.20
13600;DHT22;6871;51.34740610;4.31323160;2022-07-12T19:12:06;26.10;72.30
13600;DHT22;6871;51.34740610;4.31323160;2022-07-12T19:14:35;26.10;72.50
13600;DHT22;6871;51.34740610;4.31323160;2022-07-12T19:17:04;26.10;72.50
13600;DHT22;6871;51.34740610;4.31323160;2022-07-12T19:19:33;26.20;72.50
13600;DHT22;6871;51.34740610;4.31323160;2022-07-12T19:22:03;26.20;72.50
13600;DHT22;6871;51.34740610;4.31323160;2022-07-12T19:24:33;26.20;72.60
13600;DHT22;6871;51.34740610;4.31323160;2022-07-12T19:27:02;26.20;72.80
13600;DHT22;6871;51.34740610;4.31323160;2022-07-12T19:29:31;26.20;72.90
13600;DHT22;6871;51.34740610;4.31323160;2022-07-12T19:32:00;26.10;72.70
13600;DHT22;6871;51.34740610;4.31323160;2022-07-12T19:34:29;26.20;72.80
13600;DHT22;6871;51.34740610;4.31323160;2022-07-12T19:36:58;26.20;72.80
13600;DHT22;6871;51.34740610;4.31323160;2022-07-12T19:39:27;26.20;72.90
13600;DHT22;6871;51.34740610;4.31323160;2022-07-12T19:41:56;26.20;72.90
13600;DHT22;6871;51.34740610;4.31323160;2022-07-12T19:44:25;26.20;72.90
13600;DHT22;6871;51.34740610;4.31323160;2022-07-12T19:46:54;26.20;72.90
13600;DHT22;6871;51.34740610;4.31323160;2022-07-12T19:49:23;26.20;73.00
13600;DHT22;6871;51.34740610;4.31323160;2022-07-12T19:51:52;26.10;72.90
13600;DHT22;6871;51.34740610;4.31323160;2022-07-12T19:54:22;26.10;73.00
13600;DHT22;6871;51.34740610;4.31323160;2022-07-12T19:56:51;26.10;73.10
13600;DHT22;6871;51.34740610;4.31323160;2022-07-12T19:59:20;26.10;73.10
13600;DHT22;6871;51.34740610;4.31323160;2022-07-12T20:01:49;26.10;73.20
13600;DHT22;6871;51.34740610;4.31323160;2022-07-12T20:04:18;26.10;73.20
13600;DHT22;6871;51.34740610;4.31323160;2022-07-12T20:06:48;26.10;73.30
13600;DHT22;6871;51.34740610;4.31323160;2022-07-12T20:09:17;26.10;74.00
13600;DHT22;6871;51.34740610;4.31323160;2022-07-12T20:11:46;26.10;73.20
13600;DHT22;6871;51.34740610;4.31323160;2022-07-12T20:14:17;26.10;73.60
13600;DHT22;6871;51.34740610;4.31323160;2022-07-12T20:16:46;26.10;73.60
13600;DHT22;6871;51.34740610;4.31323160;2022-07-12T20:19:17;26.10;73.50
13600;DHT22;6871;51.34740610;4.31323160;2022-07-12T20:21:46;26.10;73.60
13600;DHT22;6871;51.34740610;4.31323160;2022-07-12T20:24:15;26.10;73.60
13600;DHT22;6871;51.34740610;4.31323160;2022-07-12T20:26:44;26.10;73.50
13600;DHT22;6871;51.34740610;4.31323160;2022-07-12T20:29:13;26.10;73.50
13600;DHT22;6871;51.34740610;4.31323160;2022-07-12T20:31:42;26.10;73.50
13600;DHT22;6871;51.34740610;4.31323160;2022-07-12T20:34:11;26.10;73.60
13600;DHT22;6871;51.34740610;4.31323160;2022-07-12T20:36:58;26.10;73.80
13600;DHT22;6871;51.34740610;4.31323160;2022-07-12T20:39:28;26.10;73.80
13600;DHT22;6871;51.34740610;4.31323160;2022-07-12T20:41:59;26.10;73.90
13600;DHT22;6871;51.34740610;4.31323160;2022-07-12T20:44:30;26.10;74.00
13600;DHT22;6871;51.34740610;4.31323160;2022-07-12T20:47:00;26.10;73.90
13600;DHT22;6871;51.34740610;4.31323160;2022-07-12T20:49:29;26.10;74.00
13600;DHT22;6871;51.34740610;4.31323160;2022-07-12T20:51:58;26.10;73.90
13600;DHT22;6871;51.34740610;4.31323160;2022-07-12T20:54:28;26.10;74.10
13600;DHT22;6871;51.34740610;4.31323160;2022-07-12T20:56:58;26.10;74.00
13600;DHT22;6871;51.34740610;4.31323160;2022-07-12T20:59:27;26.00;74.40
13600;DHT22;6871;51.34740610;4.31323160;2022-07-12T21:01:57;26.10;74.60
13600;DHT22;6871;51.34740610;4.31323160;2022-07-12T21:04:26;26.10;74.60
13600;DHT22;6871;51.34740610;4.31323160;2022-07-12T21:06:55;26.10;74.40
13600;DHT22;6871;51.34740610;4.31323160;2022-07-12T21:09:24;26.10;74.30
13600;DHT22;6871;51.34740610;4.31323160;2022-07-12T21:11:53;26.00;74.40
13600;DHT22;6871;51.34740610;4.31323160;2022-07-12T21:14:22;26.00;74.70
13600;DHT22;6871;51.34740610;4.31323160;2022-07-12T21:16:51;26.00;75.00
13600;DHT22;6871;51.34740610;4.31323160;2022-07-12T21:19:20;26.00;76.90
13600;DHT22;6871;51.34740610;4.31323160;2022-07-12T21:21:49;26.00;80.90
13600;DHT22;6871;51.34740610;4.31323160;2022-07-12T21:24:18;26.00;82.60
13600;DHT22;6871;51.34740610;4.31323160;2022-07-12T21:26:47;26.00;83.10
13600;DHT22;6871;51.34740610;4.31323160;2022-07-12T21:29:18;26.10;82.50
13600;DHT22;6871;51.34740610;4.31323160;2022-07-12T21:31:48;26.10;82.40
13600;DHT22;6871;51.34740610;4.31323160;2022-07-12T21:34:17;26.00;82.20
13600;DHT22;6871;51.34740610;4.31323160;2022-07-12T21:36:46;26.10;82.30
13600;DHT22;6871;51.34740610;4.31323160;2022-07-12T21:39:16;26.00;81.80
13600;DHT22;6871;51.34740610;4.31323160;2022-07-12T21:41:45;26.00;81.80
13600;DHT22;6871;51.34740610;4.31323160;2022-07-12T21:44:15;26.00;80.70
13600;DHT22;6871;51.34740610;4.31323160;2022-07-12T21:46:47;26.00;79.70
13600;DHT22;6871;51.34740610;4.31323160;2022-07-12T21:49:16;26.00;78.80
13600;DHT22;6871;51.34740610;4.31323160;2022-07-12T21:51:45;26.00;78.50
13600;DHT22;6871;51.34740610;4.31323160;2022-07-12T21:54:14;26.00;77.80
13600;DHT22;6871;51.34740610;4.31323160;2022-07-12T21:56:43;26.00;77.70
13600;DHT22;6871;51.34740610;4.31323160;2022-07-12T21:59:12;26.00;77.30
13600;DHT22;6871;51.34740610;4.31323160;2022-07-12T22:01:41;26.00;77.50
13600;DHT22;6871;51.34740610;4.31323160;2022-07-12T22:04:10;26.00;77.30
13600;DHT22;6871;51.34740610;4.31323160;2022-07-12T22:06:39;26.00;77.30
13600;DHT22;6871;51.34740610;4.31323160;2022-07-12T22:09:09;26.00;77.40
13600;DHT22;6871;51.34740610;4.31323160;2022-07-12T22:11:38;26.00;77.10
13600;DHT22;6871;51.34740610;4.31323160;2022-07-12T22:14:08;26.00;76.90
13600;DHT22;6871;51.34740610;4.31323160;2022-07-12T22:16:38;26.00;76.70
13600;DHT22;6871;51.34740610;4.31323160;2022-07-12T22:19:07;26.00;76.70
13600;DHT22;6871;51.34740610;4.31323160;2022-07-12T22:21:36;26.00;76.80
13600;DHT22;6871;51.34740610;4.31323160;2022-07-12T22:24:06;26.00;76.70
13600;DHT22;6871;51.34740610;4.31323160;2022-07-12T22:26:35;26.00;76.90
13600;DHT22;6871;51.34740610;4.31323160;2022-07-12T22:29:04;26.00;76.90
13600;DHT22;6871;51.34740610;4.31323160;2022-07-12T22:31:33;26.00;76.90
13600;DHT22;6871;51.34740610;4.31323160;2022-07-12T22:34:02;26.00;76.90
13600;DHT22;6871;51.34740610;4.31323160;2022-07-12T22:36:31;26.00;76.90
13600;DHT22;6871;51.34740610;4.31323160;2022-07-12T22:39:00;25.90;76.70
13600;DHT22;6871;51.34740610;4.31323160;2022-07-12T22:41:29;26.00;76.90
13600;DHT22;6871;51.34740610;4.31323160;2022-07-12T22:43:58;26.00;77.70
13600;DHT22;6871;51.34740610;4.31323160;2022-07-12T22:46:28;26.00;76.90
13600;DHT22;6871;51.34740610;4.31323160;2022-07-12T22:48:57;26.00;77.10
13600;DHT22;6871;51.34740610;4.31323160;2022-07-12T22:51:26;25.90;77.10
13600;DHT22;6871;51.34740610;4.31323160;2022-07-12T22:54:13;25.90;77.10
13600;DHT22;6871;51.34740610;4.31323160;2022-07-12T22:56:42;25.90;77.00
13600;DHT22;6871;51.34740610;4.31323160;2022-07-12T22:59:13;25.90;76.90
13600;DHT22;6871;51.34740610;4.31323160;2022-07-12T23:01:42;25.90;77.00
13600;DHT22;6871;51.34740610;4.31323160;2022-07-12T23:04:11;25.90;77.10
13600;DHT22;6871;51.34740610;4.31323160;2022-07-12T23:06:40;25.90;77.10
13600;DHT22;6871;51.34740610;4.31323160;2022-07-12T23:09:09;25.80;77.20
13600;DHT22;6871;51.34740610;4.31323160;2022-07-12T23:11:39;25.90;77.30
13600;DHT22;6871;51.34740610;4.31323160;2022-07-12T23:14:08;25.90;77.30
13600;DHT22;6871;51.34740610;4.31323160;2022-07-12T23:16:37;25.90;77.40
13600;DHT22;6871;51.34740610;4.31323160;2022-07-12T23:19:06;25.90;78.00
13600;DHT22;6871;51.34740610;4.31323160;2022-07-12T23:21:35;25.90;77.40
13600;DHT22;6871;51.34740610;4.31323160;2022-07-12T23:24:06;25.90;77.50
13600;DHT22;6871;51.34740610;4.31323160;2022-07-12T23:26:35;25.90;77.60